Time;durP1;ratioP1;P1;durP2;ratioP2;P2;SDS_P1;SDS_P2;PMS_P1;PMS_P2;Temp;Humidity;BMP_temperature;BMP_pressure;BME280_temperature;BME280_humidity;BME280_pressure;Samples;Min_cycle;Max_cycle;Signal;HPM_P1;HPM_P2
2023/04/04 00:00:51;;;;;;;3.00;1.50;;;;;;;1.68;100.00;99782.34;107214;1276;22563;-70
2023/04/04 00:03:19;;;;;;;2.30;1.40;;;;;;;1.64;100.00;99778.06;106992;1276;24217;-70
2023/04/04 00:05:46;;;;;;;3.60;1.10;;;;;;;1.63;100.00;99773.69;106912;1276;25334;-69
2023/04/04 00:08:13;;;;;;;3.60;1.50;;;;;;;1.64;100.00;99770.95;107204;1276;25328;-70
2023/04/04 00:10:42;;;;;;;2.50;1.50;;;;;;;1.59;100.00;99773.71;107310;1276;23478;-70
2023/04/04 00:15:45;;;;;;;2.90;1.60;;;;;;;1.64;100.00;99780.37;103429;1315;545726;-67
2023/04/04 00:18:16;;;;;;;3.80;2.00;;;;;;;1.61;100.00;99779.39;107153;1277;25469;-67
2023/04/04 00:20:44;;;;;;;3.10;1.90;;;;;;;1.66;100.00;99779.04;107118;1277;24053;-67
2023/04/04 00:23:13;;;;;;;2.60;1.70;;;;;;;1.69;100.00;99780.73;107104;1254;22520;-67
2023/04/04 00:25:48;;;;;;;2.50;1.40;;;;;;;1.68;100.00;99782.63;107144;1277;25489;-67
2023/04/04 00:28:18;;;;;;;2.90;1.90;;;;;;;1.63;100.00;99784.20;107264;1275;135597;-67
2023/04/04 00:30:47;;;;;;;3.50;2.10;;;;;;;1.61;100.00;99787.02;107405;1275;25398;-68
2023/04/04 00:33:16;;;;;;;3.20;1.80;;;;;;;1.63;100.00;99791.06;107418;1275;25370;-67
2023/04/04 00:35:47;;;;;;;2.20;1.30;;;;;;;1.65;100.00;99795.44;107382;1275;22989;-67
2023/04/04 00:38:16;;;;;;;3.10;1.50;;;;;;;1.66;100.00;99800.43;107205;1275;22570;-67
2023/04/04 00:40:47;;;;;;;3.40;1.80;;;;;;;1.62;100.00;99788.89;110500;1275;22914;-68
2023/04/04 00:43:16;;;;;;;3.40;1.80;;;;;;;1.61;100.00;99792.27;110326;1275;22983;-68
2023/04/04 00:45:45;;;;;;;2.60;1.60;;;;;;;1.65;100.00;99785.50;110491;1275;23059;-68
2023/04/04 00:48:13;;;;;;;4.10;1.90;;;;;;;1.69;100.00;99784.97;110497;1275;22117;-68
2023/04/04 00:50:42;;;;;;;3.00;1.90;;;;;;;1.70;100.00;99786.21;110469;1275;22264;-68
2023/04/04 00:53:11;;;;;;;2.80;1.60;;;;;;;1.68;100.00;99783.70;110471;1275;22798;-68
2023/04/04 00:55:41;;;;;;;3.80;1.70;;;;;;;1.69;100.00;99787.38;110469;1275;23282;-68
2023/04/04 00:58:09;;;;;;;2.70;1.30;;;;;;;1.68;100.00;99789.60;109790;1275;24952;-68
2023/04/04 01:00:39;;;;;;;1.70;1.10;;;;;;;1.67;100.00;99788.33;107469;1275;25384;-67
2023/04/04 01:03:23;;;;;;;2.90;1.50;;;;;;;1.63;100.00;99789.52;107545;1275;25369;-67
2023/04/04 01:05:53;;;;;;;3.60;1.70;;;;;;;1.65;100.00;99787.46;107456;1275;26509;-67
2023/04/04 01:08:24;;;;;;;2.40;1.60;;;;;;;1.59;100.00;99793.65;107329;1275;26600;-69
2023/04/04 01:10:55;;;;;;;3.10;1.50;;;;;;;1.61;100.00;99794.58;107211;1275;25350;-68
2023/04/04 01:13:26;;;;;;;2.60;1.50;;;;;;;1.61;100.00;99791.49;107485;1275;22560;-67
2023/04/04 01:15:54;;;;;;;2.60;1.60;;;;;;;1.59;100.00;99792.75;107417;1275;22537;-67
2023/04/04 01:18:23;;;;;;;2.90;1.70;;;;;;;1.61;100.00;99798.67;107520;1275;25313;-66
2023/04/04 01:21:11;;;;;;;3.20;1.80;;;;;;;1.65;100.00;99800.15;107152;1275;25365;-67
2023/04/04 01:24:01;;;;;;;4.90;1.90;;;;;;;1.60;100.00;99800.62;107374;1275;22577;-67
2023/04/04 01:26:42;;;;;;;3.30;1.80;;;;;;;1.55;100.00;99804.43;107307;1275;23596;-67
2023/04/04 01:29:11;;;;;;;3.40;1.80;;;;;;;1.52;100.00;99806.42;107177;1275;24239;-67
2023/04/04 01:31:42;;;;;;;3.90;1.90;;;;;;;1.53;100.00;99815.20;107446;1275;22521;-68
2023/04/04 01:34:53;;;;;;;3.60;1.70;;;;;;;1.52;100.00;99818.28;107320;1275;25367;-68
2023/04/04 01:37:29;;;;;;;3.70;2.40;;;;;;;1.51;100.00;99816.00;106970;1275;24511;-68
2023/04/04 01:40:27;;;;;;;3.20;2.00;;;;;;;1.48;100.00;99814.44;107443;1275;24283;-68
2023/04/04 01:42:56;;;;;;;4.70;2.40;;;;;;;1.53;100.00;99820.25;107334;1275;26476;-67
2023/04/04 01:45:25;;;;;;;4.70;2.50;;;;;;;1.55;100.00;99825.61;107160;1275;22536;-67
2023/04/04 01:47:53;;;;;;;4.50;2.60;;;;;;;1.53;100.00;99825.48;107167;1275;25427;-67
2023/04/04 01:50:23;;;;;;;4.70;2.70;;;;;;;1.44;100.00;99821.77;107325;1275;22558;-67
2023/04/04 01:52:52;;;;;;;3.90;2.50;;;;;;;1.43;100.00;99822.75;107306;1275;25279;-67
2023/04/04 01:55:20;;;;;;;4.90;2.90;;;;;;;1.46;100.00;99819.04;107109;1275;25053;-67
2023/04/04 01:57:51;;;;;;;4.70;2.90;;;;;;;1.47;100.00;99815.27;110329;1275;22960;-68
2023/04/04 02:00:19;;;;;;;4.60;2.80;;;;;;;1.43;100.00;99812.55;110472;1275;22384;-68
2023/04/04 02:02:48;;;;;;;4.50;2.80;;;;;;;1.45;100.00;99814.37;110483;1275;22252;-67
2023/04/04 02:05:16;;;;;;;6.20;3.20;;;;;;;1.52;100.00;99811.66;110371;1275;22512;-68
2023/04/04 02:07:50;;;;;;;4.60;2.90;;;;;;;1.55;100.00;99805.14;110463;1275;22263;-68
2023/04/04 02:10:25;;;;;;;4.60;2.60;;;;;;;1.51;100.00;99797.98;110375;1275;23111;-68
2023/04/04 02:12:53;;;;;;;5.90;3.50;;;;;;;1.47;100.00;99799.77;110368;1275;22262;-68
2023/04/04 02:15:23;;;;;;;5.20;2.80;;;;;;;1.46;100.00;99802.73;108521;1275;22548;-67
2023/04/04 02:17:52;;;;;;;5.60;2.80;;;;;;;1.48;100.00;99798.89;107114;1275;24475;-67
2023/04/04 02:20:22;;;;;;;6.30;3.20;;;;;;;1.41;100.00;99795.36;107231;1275;22621;-67
2023/04/04 02:22:52;;;;;;;4.20;2.60;;;;;;;1.42;100.00;99794.90;107345;1275;24404;-67
2023/04/04 02:25:23;;;;;;;4.00;2.40;;;;;;;1.42;100.00;99792.80;107421;1275;22663;-67
2023/04/04 02:27:53;;;;;;;5.90;2.80;;;;;;;1.36;100.00;99789.23;107313;1275;26657;-68
2023/04/04 02:30:22;;;;;;;4.30;2.80;;;;;;;1.34;100.00;99786.02;107327;1275;23276;-67
2023/04/04 02:32:51;;;;;;;5.40;2.80;;;;;;;1.33;100.00;99783.51;107139;1275;25408;-67
2023/04/04 02:35:20;;;;;;;5.40;3.20;;;;;;;1.33;100.00;99778.84;107438;1275;24359;-67
2023/04/04 02:37:49;;;;;;;4.90;3.00;;;;;;;1.36;100.00;99771.23;107265;1275;25297;-67
2023/04/04 02:40:41;;;;;;;5.10;3.10;;;;;;;1.36;100.00;99773.96;107225;1275;22517;-67
2023/04/04 02:43:10;;;;;;;6.30;3.40;;;;;;;1.31;100.00;99774.64;107197;1275;22516;-67
2023/04/04 02:45:40;;;;;;;5.60;3.60;;;;;;;1.30;100.00;99778.52;107159;1275;24409;-67
2023/04/04 02:48:20;;;;;;;7.00;4.00;;;;;;;1.30;100.00;99787.81;107298;1275;25832;-68
2023/04/04 02:50:50;;;;;;;5.40;3.30;;;;;;;1.31;100.00;99790.56;107395;1275;22452;-67
2023/04/04 02:53:21;;;;;;;5.80;3.20;;;;;;;1.26;100.00;99792.14;107176;1275;24225;-67
2023/04/04 02:55:51;;;;;;;5.60;3.30;;;;;;;1.26;100.00;99788.22;107070;1275;24197;-67
2023/04/04 02:58:21;;;;;;;5.60;3.20;;;;;;;1.31;100.00;99787.05;107320;1275;23653;-66
2023/04/04 03:00:54;;;;;;;5.60;3.40;;;;;;;1.27;100.00;99791.23;107367;1275;25346;-67
2023/04/04 03:03:26;;;;;;;5.90;3.20;;;;;;;1.28;100.00;99795.07;107136;1275;25430;-67
2023/04/04 03:05:56;;;;;;;5.40;3.10;;;;;;;1.33;100.00;99800.30;107319;1275;25519;-67
2023/04/04 03:08:26;;;;;;;5.10;3.50;;;;;;;1.34;100.00;99803.55;107283;1275;24369;-67
2023/04/04 03:10:57;;;;;;;4.80;3.20;;;;;;;1.29;100.00;99805.63;107339;1275;22521;-68
2023/04/04 03:13:26;;;;;;;4.70;2.70;;;;;;;1.28;100.00;99808.98;107120;1275;22527;-67
2023/04/04 03:16:02;;;;;;;7.60;3.30;;;;;;;1.29;100.00;99816.27;107242;1275;25328;-68
2023/04/04 03:18:36;;;;;;;5.30;2.70;;;;;;;1.25;100.00;99820.32;110324;1275;22302;-68
2023/04/04 03:21:11;;;;;;;5.40;3.10;;;;;;;1.27;100.00;99819.86;110367;1275;22239;-68
2023/04/04 03:23:41;;;;;;;4.60;2.60;;;;;;;1.27;100.00;99821.22;110374;1275;22276;-68
2023/04/04 03:26:09;;;;;;;4.10;2.30;;;;;;;1.27;100.00;99828.23;110365;1275;22200;-68
2023/04/04 03:28:39;;;;;;;4.00;2.20;;;;;;;1.31;100.00;99833.18;110442;1275;23331;-68
2023/04/04 03:31:08;;;;;;;3.30;1.90;;;;;;;1.36;100.00;99829.33;110449;1275;22200;-68
2023/04/04 03:33:41;;;;;;;5.50;2.70;;;;;;;1.36;100.00;99821.79;110507;1275;22269;-68
2023/04/04 03:36:11;;;;;;;4.20;2.60;;;;;;;1.33;100.00;99818.95;108762;1275;23039;-67
2023/04/04 03:38:43;;;;;;;4.20;2.40;;;;;;;1.36;100.00;99822.35;107275;1275;22578;-67
2023/04/04 03:41:11;;;;;;;4.30;2.30;;;;;;;1.41;100.00;99823.84;107236;1276;23225;-67
2023/04/04 03:43:40;;;;;;;4.60;2.80;;;;;;;1.36;100.00;99826.45;107403;1275;26006;-67
2023/04/04 03:46:09;;;;;;;3.50;2.20;;;;;;;1.32;100.00;99825.09;107282;1275;25408;-67
2023/04/04 03:48:38;;;;;;;3.60;2.20;;;;;;;1.31;100.00;99820.67;107331;1275;23656;-67
2023/04/04 03:51:10;;;;;;;3.90;2.10;;;;;;;1.27;100.00;99813.02;107538;1275;23280;-67
2023/04/04 03:53:38;;;;;;;3.50;2.30;;;;;;;1.27;100.00;99815.16;107439;1275;23280;-67
2023/04/04 03:56:11;;;;;;;3.90;2.20;;;;;;;1.24;100.00;99816.11;107389;1275;25350;-67
2023/04/04 03:58:41;;;;;;;4.10;2.20;;;;;;;1.23;100.00;99817.31;107078;1275;22533;-67
2023/04/04 04:01:11;;;;;;;6.00;2.40;;;;;;;1.22;100.00;99818.88;107075;1275;22628;-67
2023/04/04 04:03:43;;;;;;;3.90;2.50;;;;;;;1.22;100.00;99820.41;107151;1275;25482;-67
2023/04/04 04:06:11;;;;;;;3.00;2.00;;;;;;;1.21;100.00;99823.75;107153;1274;22517;-68
2023/04/04 04:08:39;;;;;;;3.50;2.60;;;;;;;1.22;100.00;99827.21;107226;1275;24042;-67
2023/04/04 04:11:11;;;;;;;4.00;2.10;;;;;;;1.21;100.00;99833.66;107279;1275;25287;-67
2023/04/04 04:13:40;;;;;;;2.90;1.90;;;;;;;1.20;100.00;99835.96;107547;1275;23375;-68
2023/04/04 04:16:08;;;;;;;4.00;1.90;;;;;;;1.21;100.00;99841.00;107199;1275;25347;-67
2023/04/04 04:18:38;;;;;;;3.10;2.10;;;;;;;1.23;100.00;99841.52;107323;1275;23412;-67
2023/04/04 04:21:10;;;;;;;3.10;2.20;;;;;;;1.21;100.00;99844.34;107182;1275;26506;-67
2023/04/04 04:23:41;;;;;;;4.20;2.20;;;;;;;1.21;100.00;99844.52;107290;1276;25518;-67
2023/04/04 04:26:10;;;;;;;2.80;1.90;;;;;;;1.25;100.00;99839.10;107301;1275;26060;-67
2023/04/04 04:28:39;;;;;;;3.60;2.30;;;;;;;1.31;100.00;99845.98;107313;1275;22546;-67
2023/04/04 04:31:11;;;;;;;3.90;1.80;;;;;;;1.26;100.00;99846.52;107134;1275;24335;-67
2023/04/04 04:33:43;;;;;;;3.60;2.20;;;;;;;1.23;100.00;99845.42;107453;1275;22518;-67
2023/04/04 04:36:15;;;;;;;3.60;2.10;;;;;;;1.22;100.00;99843.73;107292;1275;25346;-67
2023/04/04 04:38:57;;;;;;;3.50;2.30;;;;;;;1.22;100.00;99845.83;107251;1276;22531;-67
2023/04/04 04:41:28;;;;;;;4.10;2.50;;;;;;;1.17;100.00;99843.27;107291;1275;22814;-68
2023/04/04 04:43:59;;;;;;;4.00;2.40;;;;;;;1.16;100.00;99844.06;107143;1276;25347;-67
2023/04/04 04:46:28;;;;;;;2.90;1.90;;;;;;;1.19;100.00;99836.55;110320;1276;23030;-68
2023/04/04 04:49:05;;;;;;;3.50;2.50;;;;;;;1.25;100.00;99839.52;110426;1275;22194;-68
2023/04/04 04:51:35;;;;;;;4.90;2.90;;;;;;;1.25;100.00;99839.92;110508;1275;22926;-68
2023/04/04 04:54:03;;;;;;;4.30;2.70;;;;;;;1.23;100.00;99841.00;110354;1275;22234;-68
2023/04/04 04:56:32;;;;;;;3.60;2.40;;;;;;;1.24;100.00;99841.79;110479;1275;22206;-68
2023/04/04 04:59:07;;;;;;;3.80;2.90;;;;;;;1.26;100.00;99832.85;110328;1275;22184;-68
2023/04/04 05:01:42;;;;;;;4.20;2.70;;;;;;;1.26;100.00;99834.98;107129;1275;22525;-67
2023/04/04 05:04:10;;;;;;;4.80;3.20;;;;;;;1.27;100.00;99834.30;107174;1275;24247;-67
2023/04/04 05:06:44;;;;;;;5.80;3.20;;;;;;;1.31;100.00;99839.99;107334;1275;22516;-67
2023/04/04 05:09:13;;;;;;;4.20;3.30;;;;;;;1.31;100.00;99840.52;107161;1275;26518;-67
2023/04/04 05:11:46;;;;;;;4.80;3.00;;;;;;;1.26;100.00;99846.61;107316;1275;25352;-68
2023/04/04 05:14:15;;;;;;;4.40;3.00;;;;;;;1.28;100.00;99847.55;107328;1275;25239;-68
2023/04/04 05:16:52;;;;;;;4.10;2.70;;;;;;;1.30;100.00;99855.39;107314;1275;25443;-67
2023/04/04 05:19:22;;;;;;;4.50;3.30;;;;;;;1.30;100.00;99860.05;107387;1275;22533;-67
2023/04/04 05:21:53;;;;;;;4.60;2.80;;;;;;;1.26;100.00;99869.51;107387;1275;22637;-67
2023/04/04 05:24:34;;;;;;;4.40;3.00;;;;;;;1.29;100.00;99877.55;107233;1275;25362;-68
2023/04/04 05:27:02;;;;;;;4.00;2.80;;;;;;;1.31;100.00;99883.15;107108;1275;23861;-67
2023/04/04 05:29:37;;;;;;;5.00;3.10;;;;;;;1.28;100.00;99869.83;107201;1275;25064;-67
2023/04/04 05:32:08;;;;;;;4.50;3.00;;;;;;;1.21;100.00;99854.98;107312;1275;22526;-67
2023/04/04 05:34:38;;;;;;;5.80;3.70;;;;;;;1.21;100.00;99839.23;107413;1275;24238;-67
2023/04/04 05:37:10;;;;;;;5.60;3.50;;;;;;;1.27;100.00;99832.23;107259;1275;24400;-69
2023/04/04 05:39:48;;;;;;;6.60;4.10;;;;;;;1.25;100.00;99833.32;107223;1275;25544;-68
2023/04/04 05:42:16;;;;;;;5.40;3.60;;;;;;;1.27;100.00;99845.73;107212;1275;22636;-67
2023/04/04 05:44:49;;;;;;;4.80;3.30;;;;;;;1.29;100.00;99859.39;107319;1275;24419;-68
2023/04/04 05:47:20;;;;;;;5.50;3.90;;;;;;;1.24;100.00;99869.42;107444;1275;25408;-67
2023/04/04 05:49:50;;;;;;;5.20;3.70;;;;;;;1.21;100.00;99870.20;107519;1274;25252;-68
2023/04/04 05:52:19;;;;;;;5.80;3.80;;;;;;;1.21;100.00;99858.65;107072;1275;25408;-67
2023/04/04 05:54:50;;;;;;;5.70;3.90;;;;;;;1.20;100.00;99852.14;107192;1275;22524;-68
2023/04/04 05:57:24;;;;;;;6.30;3.50;;;;;;;1.17;100.00;99865.50;107259;1275;22751;-68
2023/04/04 06:00:04;;;;;;;6.80;4.50;;;;;;;1.19;100.00;99878.91;107167;1275;23008;-68
2023/04/04 06:02:43;;;;;;;5.60;3.80;;;;;;;1.21;100.00;99889.10;110482;1275;22918;-69
2023/04/04 06:05:16;;;;;;;6.30;4.10;;;;;;;1.28;100.00;99887.65;110326;1275;22930;-69
2023/04/04 06:07:46;;;;;;;6.00;4.10;;;;;;;1.33;100.00;99890.01;110233;1276;22325;-68
2023/04/04 06:10:14;;;;;;;6.40;4.10;;;;;;;1.30;100.00;99890.75;110504;1275;22252;-68
2023/04/04 06:12:43;;;;;;;7.00;4.30;;;;;;;1.35;100.00;99893.02;110346;1276;22276;-68
2023/04/04 06:15:13;;;;;;;7.40;4.60;;;;;;;1.31;100.00;99891.16;110343;1275;22245;-68
2023/04/04 06:17:44;;;;;;;8.50;4.10;;;;;;;1.32;100.00;99887.82;110327;1275;22198;-68
2023/04/04 06:20:12;;;;;;;6.90;4.70;;;;;;;1.39;100.00;99883.10;110349;1275;23124;-68
2023/04/04 06:22:43;;;;;;;7.90;5.10;;;;;;;1.38;100.00;99884.41;108160;1275;24185;-67
2023/04/04 06:25:13;;;;;;;6.70;4.10;;;;;;;1.39;100.00;99875.88;107399;1275;22514;-67
2023/04/04 06:27:42;;;;;;;6.60;4.00;;;;;;;1.42;100.00;99879.13;107282;1275;25347;-69
2023/04/04 06:30:13;;;;;;;6.10;3.90;;;;;;;1.41;100.00;99881.23;107279;1275;22474;-68
2023/04/04 06:32:45;;;;;;;8.60;4.80;;;;;;;1.47;100.00;99881.48;107233;1275;26153;-68
2023/04/04 06:35:17;;;;;;;7.80;5.50;;;;;;;1.48;100.00;99876.84;107387;1275;22922;-68
2023/04/04 06:38:06;;;;;;;10.60;6.40;;;;;;;1.46;100.00;99873.36;107129;1275;25356;-68
2023/04/04 06:40:36;;;;;;;9.00;6.10;;;;;;;1.44;100.00;99872.02;107319;1275;25415;-68
2023/04/04 06:43:05;;;;;;;8.50;6.10;;;;;;;1.46;100.00;99872.60;107245;1275;25357;-69
2023/04/04 06:45:45;;;;;;;6.60;4.90;;;;;;;1.49;100.00;99868.95;107398;1275;22558;-69
2023/04/04 06:48:14;;;;;;;7.30;5.00;;;;;;;1.50;100.00;99868.55;107085;1275;22530;-68
2023/04/04 06:50:42;;;;;;;8.40;5.20;;;;;;;1.45;100.00;99866.48;107239;1275;25497;-68
2023/04/04 06:53:16;;;;;;;8.00;5.50;;;;;;;1.48;100.00;99861.49;107092;1275;22517;-68
2023/04/04 06:55:44;;;;;;;8.30;5.50;;;;;;;1.46;100.00;99858.98;107152;1275;23440;-68
2023/04/04 06:58:17;;;;;;;7.40;5.90;;;;;;;1.40;100.00;99856.52;107051;1275;25062;-68
2023/04/04 07:00:48;;;;;;;7.80;5.70;;;;;;;1.35;100.00;99854.34;107196;1275;22518;-68
2023/04/04 07:03:17;;;;;;;7.90;5.80;;;;;;;1.36;100.00;99861.15;107275;1275;27399;-68
2023/04/04 07:05:45;;;;;;;11.20;6.60;;;;;;;1.34;100.00;99861.44;107328;1275;25418;-68
2023/04/04 07:08:16;;;;;;;8.60;6.40;;;;;;;1.32;100.00;99866.73;107262;1275;23764;-68
2023/04/04 07:10:45;;;;;;;8.70;6.60;;;;;;;1.32;100.00;99866.36;107348;1275;23470;-68
2023/04/04 07:13:15;;;;;;;8.60;6.60;;;;;;;1.31;100.00;99875.06;107487;1275;25340;-68
2023/04/04 07:15:48;;;;;;;10.00;6.60;;;;;;;1.34;100.00;99875.69;107503;1275;23352;-68
2023/04/04 07:18:18;;;;;;;9.50;6.20;;;;;;;1.43;100.00;99883.29;107298;1275;25647;-68
2023/04/04 07:20:50;;;;;;;10.40;6.20;;;;;;;1.43;100.00;99882.40;107303;1275;26494;-68
2023/04/04 07:23:24;;;;;;;9.50;5.80;;;;;;;1.39;100.00;99878.47;107324;1275;26500;-67
2023/04/04 07:25:54;;;;;;;7.40;5.50;;;;;;;1.40;100.00;99885.77;107294;1275;25520;-67
2023/04/04 07:28:24;;;;;;;7.40;5.60;;;;;;;1.34;100.00;99886.45;107295;1275;26619;-68
2023/04/04 07:31:02;;;;;;;7.40;5.40;;;;;;;1.31;100.00;99892.48;110453;1275;22215;-68
2023/04/04 07:33:31;;;;;;;8.60;5.70;;;;;;;1.33;100.00;99892.31;110483;1275;22233;-68
2023/04/04 07:36:02;;;;;;;9.40;6.30;;;;;;;1.38;100.00;99895.20;110449;1275;22955;-69
2023/04/04 07:38:33;;;;;;;10.20;6.80;;;;;;;1.45;100.00;99895.88;110484;1275;22221;-68
2023/04/04 07:41:01;;;;;;;8.20;6.00;;;;;;;1.51;100.00;99900.53;110505;1275;22986;-68
2023/04/04 07:43:32;;;;;;;8.50;5.60;;;;;;;1.62;100.00;99900.64;110476;1275;22244;-68
2023/04/04 07:46:01;;;;;;;10.10;5.90;;;;;;;1.70;100.00;99901.33;108572;1275;24341;-68
2023/04/04 07:48:29;;;;;;;8.50;6.20;;;;;;;1.77;100.00;99900.42;107281;1275;25287;-68
2023/04/04 07:51:03;;;;;;;8.00;5.30;;;;;;;1.82;100.00;99900.54;107632;1275;23393;-68
2023/04/04 07:53:32;;;;;;;8.50;5.90;;;;;;;1.84;100.00;99902.39;107584;1275;25261;-69
2023/04/04 07:56:05;;;;;;;7.80;5.00;;;;;;;1.85;100.00;99897.98;107486;1275;25319;-69
2023/04/04 07:58:36;;;;;;;7.90;5.10;;;;;;;1.88;100.00;99901.06;107248;1275;26512;-68
2023/04/04 08:01:04;;;;;;;7.50;5.70;;;;;;;1.83;100.00;99899.14;107262;1275;22526;-68
2023/04/04 08:03:35;;;;;;;8.60;6.00;;;;;;;1.88;100.00;99898.26;107242;1275;26499;-69
2023/04/04 08:06:03;;;;;;;8.60;5.80;;;;;;;1.92;100.00;99899.39;107366;1275;23311;-69
2023/04/04 08:08:31;;;;;;;9.20;5.60;;;;;;;1.90;100.00;99900.93;107317;1275;22810;-68
2023/04/04 08:11:02;;;;;;;8.70;5.60;;;;;;;1.90;100.00;99900.18;107233;1275;25357;-68
2023/04/04 08:13:31;;;;;;;9.40;6.40;;;;;;;1.90;100.00;99900.15;107143;1275;22528;-69
2023/04/04 08:16:00;;;;;;;9.90;7.10;;;;;;;1.89;100.00;99903.00;107163;1275;25385;-69
2023/04/04 08:18:30;;;;;;;8.80;6.20;;;;;;;1.90;100.00;99907.16;107402;1275;26491;-69
2023/04/04 08:20:59;;;;;;;9.20;6.90;;;;;;;1.93;100.00;99909.02;107283;1275;23145;-69
2023/04/04 08:23:29;;;;;;;7.50;5.50;;;;;;;1.91;100.00;99912.61;107154;1275;22567;-69
2023/04/04 08:25:58;;;;;;;8.60;6.50;;;;;;;1.97;100.00;99914.20;107040;1275;26053;-69
2023/04/04 08:28:27;;;;;;;8.20;6.70;;;;;;;1.98;100.00;99911.73;107031;1275;22646;-69
2023/04/04 08:30:55;;;;;;;8.20;5.70;;;;;;;1.99;100.00;99909.98;107076;1275;25463;-69
2023/04/04 08:33:29;;;;;;;8.50;5.70;;;;;;;2.02;100.00;99904.93;107307;1275;26756;-69
2023/04/04 08:36:15;;;;;;;7.80;5.80;;;;;;;1.98;100.00;99909.16;107262;1275;23225;-67
2023/04/04 08:38:46;;;;;;;8.30;6.00;;;;;;;1.91;100.00;99909.40;107347;1275;22533;-68
2023/04/04 08:41:15;;;;;;;9.20;6.20;;;;;;;1.87;100.00;99913.23;107311;1275;22516;-67
2023/04/04 08:43:53;;;;;;;7.30;5.10;;;;;;;1.92;100.00;99911.49;107091;1275;25426;-68
2023/04/04 08:46:24;;;;;;;9.00;6.30;;;;;;;2.00;100.00;99911.30;110343;1275;23001;-68
2023/04/04 08:48:54;;;;;;;8.70;6.40;;;;;;;1.99;100.00;99904.90;110376;1276;22374;-68
2023/04/04 08:51:22;;;;;;;8.80;6.50;;;;;;;2.04;100.00;99908.00;110372;1275;22204;-68
2023/04/04 08:53:53;;;;;;;9.10;6.50;;;;;;;2.09;100.00;99911.23;110325;1275;22213;-68
2023/04/04 08:56:22;;;;;;;8.90;6.30;;;;;;;2.06;100.00;99911.15;110350;1275;22183;-68
2023/04/04 08:58:50;;;;;;;9.20;6.50;;;;;;;2.05;100.00;99914.05;110525;1275;22193;-68
2023/04/04 09:01:19;;;;;;;8.50;5.90;;;;;;;2.14;100.00;99908.65;110539;1275;22208;-68
2023/04/04 09:03:57;;;;;;;8.30;6.50;;;;;;;2.20;100.00;99913.04;110454;1275;22220;-68
2023/04/04 09:06:26;;;;;;;9.50;6.40;;;;;;;2.21;100.00;99914.44;107699;1275;22520;-68
2023/04/04 09:08:56;;;;;;;8.20;6.30;;;;;;;2.26;100.00;99910.82;107252;1275;22814;-68
2023/04/04 09:11:24;;;;;;;8.10;5.60;;;;;;;2.31;100.00;99905.19;107291;1275;24169;-68
2023/04/04 09:13:53;;;;;;;8.90;6.10;;;;;;;2.31;100.00;99905.67;107177;1275;22531;-68
2023/04/04 09:16:22;;;;;;;8.70;5.70;;;;;;;2.36;100.00;99904.41;107115;1275;25419;-68
2023/04/04 09:18:51;;;;;;;7.90;5.80;;;;;;;2.51;100.00;99903.46;106874;1275;25335;-67
2023/04/04 09:21:20;;;;;;;8.90;5.70;;;;;;;2.62;100.00;99908.13;107388;1275;25350;-68
2023/04/04 09:23:58;;;;;;;11.30;5.80;;;;;;;2.70;100.00;99907.32;107257;1275;22523;-68
2023/04/04 09:26:26;;;;;;;7.40;5.90;;;;;;;2.81;100.00;99914.78;107415;1275;24216;-68
2023/04/04 09:28:55;;;;;;;7.90;6.30;;;;;;;2.85;100.00;99914.88;107383;1275;24187;-68
2023/04/04 09:31:24;;;;;;;7.90;4.50;;;;;;;2.88;100.00;99911.58;107328;1275;25455;-68
2023/04/04 09:33:53;;;;;;;5.90;4.70;;;;;;;2.96;100.00;99912.73;107022;1275;22575;-67
2023/04/04 09:36:21;;;;;;;7.10;5.30;;;;;;;3.00;100.00;99907.48;107167;1275;25307;-67
2023/04/04 09:38:50;;;;;;;7.40;5.60;;;;;;;2.99;100.00;99904.55;107021;1275;25415;-68
2023/04/04 09:41:19;;;;;;;7.60;5.30;;;;;;;3.06;100.00;99903.26;107278;1275;25482;-68
2023/04/04 09:43:48;;;;;;;7.60;5.30;;;;;;;3.12;100.00;99904.48;107093;1275;22876;-68
2023/04/04 09:46:20;;;;;;;5.90;4.70;;;;;;;3.20;100.00;99904.84;106999;1275;25539;-68
2023/04/04 09:48:54;;;;;;;7.30;4.50;;;;;;;3.30;100.00;99899.86;107263;1275;22526;-68
2023/04/04 09:51:22;;;;;;;6.50;5.40;;;;;;;3.38;100.00;99903.56;107233;1275;22527;-68
2023/04/04 09:53:50;;;;;;;8.60;5.50;;;;;;;3.39;100.00;99902.20;107256;1275;24396;-68
2023/04/04 09:56:19;;;;;;;6.00;4.20;;;;;;;3.38;100.00;99897.09;107292;1275;24285;-68
2023/04/04 09:58:47;;;;;;;6.10;4.40;;;;;;;3.44;100.00;99894.81;107480;1275;25338;-70
2023/04/04 10:01:32;;;;;;;6.70;4.80;;;;;;;3.45;100.00;99885.73;107068;1275;24238;-69
2023/04/04 10:04:02;;;;;;;7.20;4.80;;;;;;;3.35;100.00;99882.85;107191;1275;25341;-69
2023/04/04 10:06:31;;;;;;;5.50;4.40;;;;;;;3.35;100.00;99882.89;107291;1275;22523;-69
2023/04/04 10:09:00;;;;;;;5.60;4.30;;;;;;;3.42;100.00;99888.77;107268;1275;25363;-70
2023/04/04 10:11:33;;;;;;;5.80;4.20;;;;;;;3.57;100.00;99888.84;107092;1275;25366;-68
2023/04/04 10:14:05;;;;;;;5.60;4.00;;;;;;;3.68;100.00;99886.01;110484;1275;22221;-69
2023/04/04 10:16:36;;;;;;;5.60;3.90;;;;;;;3.70;100.00;99881.66;110495;1275;22277;-69
2023/04/04 10:19:09;;;;;;;6.90;4.90;;;;;;;3.80;100.00;99880.64;110488;1275;22120;-69
2023/04/04 10:21:42;;;;;;;6.40;4.80;;;;;;;3.85;100.00;99879.14;110545;1275;22133;-70
2023/04/04 10:24:10;;;;;;;6.50;4.70;;;;;;;3.83;100.00;99879.94;110186;1275;22513;-69
2023/04/04 10:26:39;;;;;;;8.00;4.90;;;;;;;3.85;100.00;99875.31;107127;1275;26500;-69
2023/04/04 10:29:09;;;;;;;8.60;5.20;;;;;;;3.86;100.00;99877.72;106788;1275;25521;-69
2023/04/04 10:31:39;;;;;;;8.20;5.60;;;;;;;3.94;100.00;99880.06;107325;1275;25359;-69
2023/04/04 10:34:19;;;;;;;6.30;4.70;;;;;;;4.01;100.00;99881.89;107141;1275;25341;-69
2023/04/04 10:36:50;;;;;;;6.40;4.40;;;;;;;3.98;100.00;99877.05;107264;1275;25366;-69
2023/04/04 10:39:26;;;;;;;6.50;4.90;;;;;;;3.97;100.00;99883.59;107544;1275;25497;-69
2023/04/04 10:41:55;;;;;;;5.90;5.20;;;;;;;4.03;100.00;99877.02;107381;1275;25607;-69
2023/04/04 10:44:32;;;;;;;5.80;4.60;;;;;;;4.01;100.00;99876.42;107431;1275;25366;-69
2023/04/04 10:47:16;;;;;;;5.80;4.50;;;;;;;4.04;100.00;99879.54;107468;1275;24925;-70
2023/04/04 10:49:46;;;;;;;7.20;5.50;;;;;;;4.07;100.00;99882.36;107291;1275;22540;-69
2023/04/04 10:52:16;;;;;;;6.40;4.30;;;;;;;4.00;100.00;99879.80;107038;1275;26650;-69
2023/04/04 10:54:44;;;;;;;5.70;4.20;;;;;;;4.00;100.00;99879.41;107173;1275;25368;-70
2023/04/04 10:57:15;;;;;;;5.60;4.70;;;;;;;3.99;100.00;99877.79;107181;1275;23276;-69
2023/04/04 11:00:00;;;;;;;7.30;5.10;;;;;;;3.96;100.00;99878.88;106896;1275;25297;-69
2023/04/04 11:02:46;;;;;;;6.80;4.60;;;;;;;3.97;100.00;99872.98;107253;1275;22646;-68
2023/04/04 11:05:21;;;;;;;8.30;5.30;;;;;;;3.99;100.00;99872.73;107296;1275;23570;-68
2023/04/04 11:08:09;;;;;;;7.70;4.70;;;;;;;3.96;100.00;99864.67;107345;1275;25429;-68
2023/04/04 11:10:56;;;;;;;7.30;5.00;;;;;;;4.06;100.00;99860.94;107317;1275;24379;-68
2023/04/04 11:13:34;;;;;;;7.90;5.10;;;;;;;4.13;100.00;99859.64;107286;1275;23223;-69
2023/04/04 11:16:08;;;;;;;7.50;4.90;;;;;;;4.12;100.00;99858.30;107314;1275;24253;-68
2023/04/04 11:18:40;;;;;;;9.00;5.10;;;;;;;4.20;100.00;99861.23;107119;1275;25401;-68
2023/04/04 11:21:13;;;;;;;5.80;4.90;;;;;;;4.27;100.00;99861.91;107274;1275;25332;-67
2023/04/04 11:24:08;;;;;;;7.20;5.40;;;;;;;4.25;100.00;99858.40;107293;1275;24878;-69
2023/04/04 11:26:38;;;;;;;6.70;4.70;;;;;;;4.25;100.00;99860.23;107310;1275;25484;-68
2023/04/04 11:29:07;;;;;;;6.90;5.30;;;;;;;4.28;100.00;99861.77;107131;1275;25683;-68
2023/04/04 11:31:46;;;;;;;6.10;4.70;;;;;;;4.27;100.00;99862.20;107130;1275;25399;-68
2023/04/04 11:34:36;;;;;;;7.30;5.10;;;;;;;4.26;100.00;99859.89;107308;1275;25567;-68
2023/04/04 11:37:17;;;;;;;6.80;4.60;;;;;;;4.24;100.00;99861.73;107319;1275;25372;-68
2023/04/04 11:39:57;;;;;;;8.70;5.20;;;;;;;4.21;100.00;99853.94;107263;1275;25347;-68
2023/04/04 11:42:32;;;;;;;6.60;4.90;;;;;;;4.18;100.00;99852.02;107140;1275;25555;-67
2023/04/04 11:45:06;;;;;;;6.20;4.90;;;;;;;4.18;100.00;99848.73;107064;1275;23789;-68
2023/04/04 11:47:34;;;;;;;7.40;5.00;;;;;;;4.28;100.00;99846.64;107285;1275;25390;-68